sensor_id;sensor_type;location;lat;lon;timestamp;P1;durP1;ratioP1;P2;durP2;ratioP2
56114;SDS011;41988;53.020;6.576;2022-12-29T14:42:33;12.05;;;2.05;;
56114;SDS011;41988;53.020;6.576;2022-12-29T14:45:29;15.80;;;3.17;;
56114;SDS011;41988;53.020;6.576;2022-12-29T14:48:38;10.98;;;2.30;;
56114;SDS011;41988;53.020;6.576;2022-12-29T14:57:27;9.32;;;2.22;;
56114;SDS011;41988;53.020;6.576;2022-12-29T15:00:27;14.20;;;2.25;;
56114;SDS011;41988;53.020;6.576;2022-12-29T15:03:50;16.77;;;2.80;;
56114;SDS011;41988;53.020;6.576;2022-12-29T15:06:40;19.13;;;3.67;;
56114;SDS011;41988;53.020;6.576;2022-12-29T15:19:29;14.15;;;3.38;;
56114;SDS011;41988;53.020;6.576;2022-12-29T15:22:19;16.77;;;3.47;;
56114;SDS011;41988;53.020;6.576;2022-12-29T15:28:50;12.38;;;3.58;;
56114;SDS011;41988;53.020;6.576;2022-12-29T15:38:14;11.32;;;2.90;;
56114;SDS011;41988;53.020;6.576;2022-12-29T15:47:42;8.02;;;2.00;;
56114;SDS011;41988;53.020;6.576;2022-12-29T15:54:49;8.90;;;3.03;;
56114;SDS011;41988;53.020;6.576;2022-12-29T15:57:46;9.98;;;2.17;;
56114;SDS011;41988;53.020;6.576;2022-12-29T16:07:45;16.48;;;2.83;;
56114;SDS011;41988;53.020;6.576;2022-12-29T16:10:59;12.27;;;3.38;;
56114;SDS011;41988;53.020;6.576;2022-12-29T16:13:44;13.50;;;2.75;;
56114;SDS011;41988;53.020;6.576;2022-12-29T16:16:43;14.10;;;1.98;;
56114;SDS011;41988;53.020;6.576;2022-12-29T16:25:36;21.20;;;4.18;;
56114;SDS011;41988;53.020;6.576;2022-12-29T16:28:30;8.85;;;2.50;;
56114;SDS011;41988;53.020;6.576;2022-12-29T16:37:33;9.95;;;3.47;;
56114;SDS011;41988;53.020;6.576;2022-12-29T16:40:28;9.43;;;2.40;;
56114;SDS011;41988;53.020;6.576;2022-12-29T16:43:30;10.43;;;2.58;;
56114;SDS011;41988;53.020;6.576;2022-12-29T16:53:20;11.65;;;2.53;;
56114;SDS011;41988;53.020;6.576;2022-12-29T16:56:19;8.00;;;2.25;;
56114;SDS011;41988;53.020;6.576;2022-12-29T16:59:33;6.05;;;1.67;;
56114;SDS011;41988;53.020;6.576;2022-12-29T17:02:44;7.28;;;1.90;;
56114;SDS011;41988;53.020;6.576;2022-12-29T17:05:42;5.20;;;1.90;;
56114;SDS011;41988;53.020;6.576;2022-12-29T17:08:27;6.00;;;1.50;;
56114;SDS011;41988;53.020;6.576;2022-12-29T17:23:15;6.00;;;1.40;;
56114;SDS011;41988;53.020;6.576;2022-12-29T17:26:04;9.75;;;1.40;;
56114;SDS011;41988;53.020;6.576;2022-12-29T17:28:54;4.43;;;1.60;;
56114;SDS011;41988;53.020;6.576;2022-12-29T17:31:44;6.78;;;1.85;;
56114;SDS011;41988;53.020;6.576;2022-12-29T17:38:00;11.90;;;3.53;;
56114;SDS011;41988;53.020;6.576;2022-12-29T17:54:41;13.00;;;3.53;;
56114;SDS011;41988;53.020;6.576;2022-12-29T17:58:29;10.02;;;3.72;;
56114;SDS011;41988;53.020;6.576;2022-12-29T18:14:46;12.90;;;3.20;;
56114;SDS011;41988;53.020;6.576;2022-12-29T18:17:57;15.15;;;4.72;;
56114;SDS011;41988;53.020;6.576;2022-12-29T18:20:46;14.90;;;5.32;;
56114;SDS011;41988;53.020;6.576;2022-12-29T18:30:24;15.88;;;4.78;;
56114;SDS011;41988;53.020;6.576;2022-12-29T18:33:18;11.32;;;3.97;;
56114;SDS011;41988;53.020;6.576;2022-12-29T18:36:08;16.58;;;5.47;;
56114;SDS011;41988;53.020;6.576;2022-12-29T18:38:54;13.60;;;4.40;;
56114;SDS011;41988;53.020;6.576;2022-12-29T18:41:42;17.48;;;4.95;;
56114;SDS011;41988;53.020;6.576;2022-12-29T18:48:00;14.95;;;5.53;;
56114;SDS011;41988;53.020;6.576;2022-12-29T18:50:55;15.93;;;5.22;;
56114;SDS011;41988;53.020;6.576;2022-12-29T18:53:43;17.65;;;4.53;;
56114;SDS011;41988;53.020;6.576;2022-12-29T21:50:14;28.63;;;3.38;;
56114;SDS011;41988;53.020;6.576;2022-12-29T21:52:59;15.43;;;3.90;;
56114;SDS011;41988;53.020;6.576;2022-12-29T21:55:43;22.10;;;4.18;;
56114;SDS011;41988;53.020;6.576;2022-12-29T21:58:34;21.42;;;3.45;;
56114;SDS011;41988;53.020;6.576;2022-12-29T22:01:41;21.90;;;4.45;;
56114;SDS011;41988;53.020;6.576;2022-12-29T22:04:45;13.45;;;3.45;;
56114;SDS011;41988;53.020;6.576;2022-12-29T22:08:04;15.32;;;3.65;;
56114;SDS011;41988;53.020;6.576;2022-12-29T22:11:07;12.35;;;3.53;;
56114;SDS011;41988;53.020;6.576;2022-12-29T22:14:11;17.98;;;4.22;;
56114;SDS011;41988;53.020;6.576;2022-12-29T22:17:03;18.58;;;3.60;;
56114;SDS011;41988;53.020;6.576;2022-12-29T22:19:50;19.50;;;3.92;;
56114;SDS011;41988;53.020;6.576;2022-12-29T22:22:38;19.63;;;3.35;;
56114;SDS011;41988;53.020;6.576;2022-12-29T22:25:27;22.30;;;3.97;;
56114;SDS011;41988;53.020;6.576;2022-12-29T22:28:19;21.58;;;4.05;;
56114;SDS011;41988;53.020;6.576;2022-12-29T22:31:06;16.08;;;4.43;;
56114;SDS011;41988;53.020;6.576;2022-12-29T22:34:09;21.73;;;4.95;;
56114;SDS011;41988;53.020;6.576;2022-12-29T22:36:59;18.17;;;3.28;;
56114;SDS011;41988;53.020;6.576;2022-12-29T22:39:43;22.02;;;4.35;;
56114;SDS011;41988;53.020;6.576;2022-12-29T22:42:28;26.77;;;5.47;;
56114;SDS011;41988;53.020;6.576;2022-12-29T22:45:16;19.45;;;3.15;;
56114;SDS011;41988;53.020;6.576;2022-12-29T22:48:03;21.65;;;3.38;;
56114;SDS011;41988;53.020;6.576;2022-12-29T22:50:53;28.05;;;5.68;;
56114;SDS011;41988;53.020;6.576;2022-12-29T22:53:50;20.60;;;4.65;;
56114;SDS011;41988;53.020;6.576;2022-12-29T22:56:40;19.13;;;4.80;;
56114;SDS011;41988;53.020;6.576;2022-12-29T22:59:27;27.08;;;4.13;;
56114;SDS011;41988;53.020;6.576;2022-12-29T23:02:22;18.98;;;4.82;;
56114;SDS011;41988;53.020;6.576;2022-12-29T23:05:10;16.00;;;4.22;;
56114;SDS011;41988;53.020;6.576;2022-12-29T23:07:59;24.38;;;5.18;;
56114;SDS011;41988;53.020;6.576;2022-12-29T23:10:43;24.85;;;4.25;;
56114;SDS011;41988;53.020;6.576;2022-12-29T23:13:30;16.05;;;4.10;;
56114;SDS011;41988;53.020;6.576;2022-12-29T23:16:23;25.20;;;4.55;;
56114;SDS011;41988;53.020;6.576;2022-12-29T23:19:28;14.98;;;3.88;;
56114;SDS011;41988;53.020;6.576;2022-12-29T23:22:18;27.00;;;5.47;;
56114;SDS011;41988;53.020;6.576;2022-12-29T23:25:11;29.13;;;6.50;;
56114;SDS011;41988;53.020;6.576;2022-12-29T23:27:56;17.15;;;5.53;;
56114;SDS011;41988;53.020;6.576;2022-12-29T23:30:56;34.22;;;7.68;;
56114;SDS011;41988;53.020;6.576;2022-12-29T23:33:46;22.30;;;4.03;;
56114;SDS011;41988;53.020;6.576;2022-12-29T23:36:36;26.15;;;4.22;;
56114;SDS011;41988;53.020;6.576;2022-12-29T23:39:23;26.20;;;4.57;;
56114;SDS011;41988;53.020;6.576;2022-12-29T23:42:12;23.25;;;4.70;;
56114;SDS011;41988;53.020;6.576;2022-12-29T23:44:56;21.87;;;3.97;;
56114;SDS011;41988;53.020;6.576;2022-12-29T23:47:57;17.30;;;4.18;;
56114;SDS011;41988;53.020;6.576;2022-12-29T23:50:55;30.00;;;4.65;;
56114;SDS011;41988;53.020;6.576;2022-12-29T23:53:42;21.42;;;4.18;;
56114;SDS011;41988;53.020;6.576;2022-12-29T23:56:29;25.15;;;4.45;;
56114;SDS011;41988;53.020;6.576;2022-12-29T23:59:38;19.70;;;4.63;;
